sensor_id;sensor_type;location;lat;lon;timestamp;P1;durP1;ratioP1;P2;durP2;ratioP2
5054;SDS011;13829;48.990;8.346;2022-11-20T00:01:30;11.77;;;8.73;;
5054;SDS011;13829;48.990;8.346;2022-11-20T00:03:58;9.97;;;8.10;;
5054;SDS011;13829;48.990;8.346;2022-11-20T00:06:25;10.70;;;8.60;;
5054;SDS011;13829;48.990;8.346;2022-11-20T00:08:54;11.80;;;8.63;;
5054;SDS011;13829;48.990;8.346;2022-11-20T00:11:24;12.13;;;9.10;;
5054;SDS011;13829;48.990;8.346;2022-11-20T00:13:54;11.33;;;8.57;;
5054;SDS011;13829;48.990;8.346;2022-11-20T00:16:25;14.47;;;9.50;;
5054;SDS011;13829;48.990;8.346;2022-11-20T00:18:55;12.87;;;8.70;;
5054;SDS011;13829;48.990;8.346;2022-11-20T00:21:23;11.53;;;8.73;;
5054;SDS011;13829;48.990;8.346;2022-11-20T00:23:53;12.37;;;8.97;;
5054;SDS011;13829;48.990;8.346;2022-11-20T00:26:23;14.30;;;9.50;;
5054;SDS011;13829;48.990;8.346;2022-11-20T00:28:53;13.60;;;9.00;;
5054;SDS011;13829;48.990;8.346;2022-11-20T00:31:21;12.77;;;9.17;;
5054;SDS011;13829;48.990;8.346;2022-11-20T00:33:50;11.27;;;9.40;;
5054;SDS011;13829;48.990;8.346;2022-11-20T00:36:18;11.33;;;8.70;;
5054;SDS011;13829;48.990;8.346;2022-11-20T00:38:50;11.97;;;9.33;;
5054;SDS011;13829;48.990;8.346;2022-11-20T00:41:18;11.90;;;9.27;;
5054;SDS011;13829;48.990;8.346;2022-11-20T00:43:46;9.73;;;8.17;;
5054;SDS011;13829;48.990;8.346;2022-11-20T00:46:14;12.77;;;9.27;;
5054;SDS011;13829;48.990;8.346;2022-11-20T00:48:43;11.37;;;9.07;;
5054;SDS011;13829;48.990;8.346;2022-11-20T00:51:13;12.13;;;9.47;;
5054;SDS011;13829;48.990;8.346;2022-11-20T00:53:42;12.30;;;9.60;;
5054;SDS011;13829;48.990;8.346;2022-11-20T00:56:10;13.13;;;10.00;;
5054;SDS011;13829;48.990;8.346;2022-11-20T00:58:40;12.70;;;9.13;;
5054;SDS011;13829;48.990;8.346;2022-11-20T01:01:10;12.77;;;8.97;;
5054;SDS011;13829;48.990;8.346;2022-11-20T01:03:41;11.83;;;9.40;;
5054;SDS011;13829;48.990;8.346;2022-11-20T01:06:11;10.13;;;7.97;;
5054;SDS011;13829;48.990;8.346;2022-11-20T01:08:42;11.67;;;8.80;;
5054;SDS011;13829;48.990;8.346;2022-11-20T01:11:11;13.33;;;9.40;;
5054;SDS011;13829;48.990;8.346;2022-11-20T01:13:41;10.90;;;8.77;;
5054;SDS011;13829;48.990;8.346;2022-11-20T01:16:10;12.30;;;8.67;;
5054;SDS011;13829;48.990;8.346;2022-11-20T01:18:40;11.90;;;8.47;;
5054;SDS011;13829;48.990;8.346;2022-11-20T01:21:10;10.33;;;8.80;;
5054;SDS011;13829;48.990;8.346;2022-11-20T01:23:43;11.53;;;8.57;;
5054;SDS011;13829;48.990;8.346;2022-11-20T01:26:12;16.03;;;8.83;;
5054;SDS011;13829;48.990;8.346;2022-11-20T01:28:41;11.47;;;8.50;;
5054;SDS011;13829;48.990;8.346;2022-11-20T01:31:12;12.30;;;9.43;;
5054;SDS011;13829;48.990;8.346;2022-11-20T01:33:42;10.20;;;8.03;;
5054;SDS011;13829;48.990;8.346;2022-11-20T01:36:10;9.50;;;8.07;;
5054;SDS011;13829;48.990;8.346;2022-11-20T01:38:40;11.23;;;8.67;;
5054;SDS011;13829;48.990;8.346;2022-11-20T01:41:08;10.77;;;7.87;;
5054;SDS011;13829;48.990;8.346;2022-11-20T01:43:57;8.43;;;7.20;;
5054;SDS011;13829;48.990;8.346;2022-11-20T01:46:23;10.10;;;7.60;;
5054;SDS011;13829;48.990;8.346;2022-11-20T01:48:51;9.30;;;7.67;;
5054;SDS011;13829;48.990;8.346;2022-11-20T01:51:29;9.63;;;7.87;;
5054;SDS011;13829;48.990;8.346;2022-11-20T01:54:02;9.33;;;7.70;;
5054;SDS011;13829;48.990;8.346;2022-11-20T01:56:35;10.90;;;7.70;;
5054;SDS011;13829;48.990;8.346;2022-11-20T01:59:08;10.67;;;7.43;;
5054;SDS011;13829;48.990;8.346;2022-11-20T02:01:41;8.93;;;7.30;;
5054;SDS011;13829;48.990;8.346;2022-11-20T02:04:08;9.60;;;8.00;;
5054;SDS011;13829;48.990;8.346;2022-11-20T02:06:38;10.80;;;7.07;;
5054;SDS011;13829;48.990;8.346;2022-11-20T02:09:10;9.37;;;7.40;;
5054;SDS011;13829;48.990;8.346;2022-11-20T02:11:38;9.03;;;7.20;;
5054;SDS011;13829;48.990;8.346;2022-11-20T02:14:05;9.93;;;7.37;;
5054;SDS011;13829;48.990;8.346;2022-11-20T02:16:33;8.20;;;6.93;;
5054;SDS011;13829;48.990;8.346;2022-11-20T02:19:08;8.43;;;6.90;;
5054;SDS011;13829;48.990;8.346;2022-11-20T02:21:46;9.40;;;6.53;;
5054;SDS011;13829;48.990;8.346;2022-11-20T02:24:24;8.10;;;6.23;;
5054;SDS011;13829;48.990;8.346;2022-11-20T02:26:52;9.27;;;6.77;;
5054;SDS011;13829;48.990;8.346;2022-11-20T02:29:31;9.60;;;6.80;;
5054;SDS011;13829;48.990;8.346;2022-11-20T02:32:04;6.77;;;6.07;;
5054;SDS011;13829;48.990;8.346;2022-11-20T02:34:31;7.60;;;6.60;;
5054;SDS011;13829;48.990;8.346;2022-11-20T02:36:58;8.83;;;6.80;;
5054;SDS011;13829;48.990;8.346;2022-11-20T02:39:27;6.97;;;5.60;;
5054;SDS011;13829;48.990;8.346;2022-11-20T02:41:55;7.27;;;5.70;;
5054;SDS011;13829;48.990;8.346;2022-11-20T02:44:22;9.40;;;6.37;;
5054;SDS011;13829;48.990;8.346;2022-11-20T02:46:50;8.50;;;5.97;;
5054;SDS011;13829;48.990;8.346;2022-11-20T02:49:17;7.97;;;6.33;;
5054;SDS011;13829;48.990;8.346;2022-11-20T02:51:44;7.00;;;6.13;;
5054;SDS011;13829;48.990;8.346;2022-11-20T02:54:11;8.13;;;6.07;;
5054;SDS011;13829;48.990;8.346;2022-11-20T02:56:39;8.93;;;5.80;;
5054;SDS011;13829;48.990;8.346;2022-11-20T02:59:06;10.20;;;6.37;;
5054;SDS011;13829;48.990;8.346;2022-11-20T03:01:33;7.47;;;5.50;;
5054;SDS011;13829;48.990;8.346;2022-11-20T03:04:00;7.80;;;5.47;;
5054;SDS011;13829;48.990;8.346;2022-11-20T03:06:28;7.30;;;5.63;;
5054;SDS011;13829;48.990;8.346;2022-11-20T03:08:55;7.23;;;5.73;;
5054;SDS011;13829;48.990;8.346;2022-11-20T03:11:22;8.73;;;6.13;;
5054;SDS011;13829;48.990;8.346;2022-11-20T03:13:50;7.40;;;5.43;;
5054;SDS011;13829;48.990;8.346;2022-11-20T03:16:18;9.60;;;5.90;;
5054;SDS011;13829;48.990;8.346;2022-11-20T03:18:47;5.43;;;4.93;;
5054;SDS011;13829;48.990;8.346;2022-11-20T03:21:15;6.33;;;5.03;;
5054;SDS011;13829;48.990;8.346;2022-11-20T03:23:42;9.13;;;5.70;;
5054;SDS011;13829;48.990;8.346;2022-11-20T03:26:10;8.13;;;5.30;;
5054;SDS011;13829;48.990;8.346;2022-11-20T03:28:40;6.23;;;5.00;;
5054;SDS011;13829;48.990;8.346;2022-11-20T03:31:11;5.80;;;5.17;;
5054;SDS011;13829;48.990;8.346;2022-11-20T03:33:40;6.43;;;5.13;;
5054;SDS011;13829;48.990;8.346;2022-11-20T03:36:09;8.73;;;5.93;;
5054;SDS011;13829;48.990;8.346;2022-11-20T03:38:39;7.23;;;5.47;;
5054;SDS011;13829;48.990;8.346;2022-11-20T03:41:08;7.57;;;5.10;;
5054;SDS011;13829;48.990;8.346;2022-11-20T03:43:38;6.60;;;5.43;;
5054;SDS011;13829;48.990;8.346;2022-11-20T03:46:06;5.27;;;4.70;;
5054;SDS011;13829;48.990;8.346;2022-11-20T03:48:35;5.93;;;5.33;;
5054;SDS011;13829;48.990;8.346;2022-11-20T03:51:08;5.00;;;4.30;;
5054;SDS011;13829;48.990;8.346;2022-11-20T03:53:38;6.33;;;4.67;;
5054;SDS011;13829;48.990;8.346;2022-11-20T03:56:06;7.90;;;5.13;;
5054;SDS011;13829;48.990;8.346;2022-11-20T03:58:34;5.63;;;4.93;;
5054;SDS011;13829;48.990;8.346;2022-11-20T04:01:05;5.23;;;4.43;;
5054;SDS011;13829;48.990;8.346;2022-11-20T04:03:35;5.17;;;4.37;;
5054;SDS011;13829;48.990;8.346;2022-11-20T04:06:04;6.53;;;5.13;;
5054;SDS011;13829;48.990;8.346;2022-11-20T04:08:35;8.23;;;4.83;;
5054;SDS011;13829;48.990;8.346;2022-11-20T04:11:09;6.30;;;4.93;;
5054;SDS011;13829;48.990;8.346;2022-11-20T04:13:38;5.63;;;4.63;;
5054;SDS011;13829;48.990;8.346;2022-11-20T04:16:06;6.77;;;4.63;;
5054;SDS011;13829;48.990;8.346;2022-11-20T04:18:37;4.83;;;4.23;;
5054;SDS011;13829;48.990;8.346;2022-11-20T04:21:04;4.97;;;4.10;;
5054;SDS011;13829;48.990;8.346;2022-11-20T04:23:32;6.03;;;4.63;;
5054;SDS011;13829;48.990;8.346;2022-11-20T04:26:03;5.43;;;4.00;;
5054;SDS011;13829;48.990;8.346;2022-11-20T04:28:32;6.30;;;4.73;;
5054;SDS011;13829;48.990;8.346;2022-11-20T04:31:03;6.47;;;4.30;;
5054;SDS011;13829;48.990;8.346;2022-11-20T04:33:32;6.60;;;4.27;;
5054;SDS011;13829;48.990;8.346;2022-11-20T04:36:02;6.50;;;4.67;;
5054;SDS011;13829;48.990;8.346;2022-11-20T04:38:32;6.73;;;4.47;;
5054;SDS011;13829;48.990;8.346;2022-11-20T04:40:59;7.93;;;5.30;;
5054;SDS011;13829;48.990;8.346;2022-11-20T04:43:29;5.40;;;4.70;;
5054;SDS011;13829;48.990;8.346;2022-11-20T04:45:57;6.20;;;5.03;;
5054;SDS011;13829;48.990;8.346;2022-11-20T04:48:27;5.77;;;4.80;;
5054;SDS011;13829;48.990;8.346;2022-11-20T04:50:55;6.63;;;4.67;;
5054;SDS011;13829;48.990;8.346;2022-11-20T04:53:24;7.67;;;5.07;;
5054;SDS011;13829;48.990;8.346;2022-11-20T04:55:51;6.10;;;5.00;;
5054;SDS011;13829;48.990;8.346;2022-11-20T04:58:25;7.00;;;4.67;;
5054;SDS011;13829;48.990;8.346;2022-11-20T05:00:52;8.37;;;5.20;;
5054;SDS011;13829;48.990;8.346;2022-11-20T05:03:19;7.57;;;4.93;;
5054;SDS011;13829;48.990;8.346;2022-11-20T05:05:46;5.17;;;4.43;;
5054;SDS011;13829;48.990;8.346;2022-11-20T05:08:13;6.63;;;5.00;;
5054;SDS011;13829;48.990;8.346;2022-11-20T05:10:41;6.70;;;4.80;;
5054;SDS011;13829;48.990;8.346;2022-11-20T05:13:08;7.97;;;4.57;;
5054;SDS011;13829;48.990;8.346;2022-11-20T05:15:35;5.80;;;4.43;;
5054;SDS011;13829;48.990;8.346;2022-11-20T05:18:02;6.00;;;4.53;;
5054;SDS011;13829;48.990;8.346;2022-11-20T05:20:29;6.60;;;4.10;;
5054;SDS011;13829;48.990;8.346;2022-11-20T05:22:56;6.27;;;4.90;;
5054;SDS011;13829;48.990;8.346;2022-11-20T05:25:23;5.77;;;4.97;;
5054;SDS011;13829;48.990;8.346;2022-11-20T05:27:52;5.20;;;4.43;;
5054;SDS011;13829;48.990;8.346;2022-11-20T05:30:19;5.43;;;3.67;;
5054;SDS011;13829;48.990;8.346;2022-11-20T05:32:46;7.17;;;4.50;;
5054;SDS011;13829;48.990;8.346;2022-11-20T05:35:13;4.77;;;4.27;;
5054;SDS011;13829;48.990;8.346;2022-11-20T05:37:40;4.47;;;4.07;;
5054;SDS011;13829;48.990;8.346;2022-11-20T05:40:08;5.97;;;4.53;;
5054;SDS011;13829;48.990;8.346;2022-11-20T05:42:36;5.67;;;4.80;;
5054;SDS011;13829;48.990;8.346;2022-11-20T05:45:05;7.57;;;4.83;;
5054;SDS011;13829;48.990;8.346;2022-11-20T05:47:34;6.37;;;4.20;;
5054;SDS011;13829;48.990;8.346;2022-11-20T05:50:01;6.60;;;4.23;;
5054;SDS011;13829;48.990;8.346;2022-11-20T05:52:28;6.27;;;3.13;;
5054;SDS011;13829;48.990;8.346;2022-11-20T05:54:56;6.30;;;3.80;;
5054;SDS011;13829;48.990;8.346;2022-11-20T05:57:23;5.87;;;3.73;;
5054;SDS011;13829;48.990;8.346;2022-11-20T05:59:50;4.67;;;3.83;;
5054;SDS011;13829;48.990;8.346;2022-11-20T06:02:18;4.33;;;3.60;;
5054;SDS011;13829;48.990;8.346;2022-11-20T06:04:45;3.70;;;3.30;;
5054;SDS011;13829;48.990;8.346;2022-11-20T06:07:12;4.83;;;3.50;;
5054;SDS011;13829;48.990;8.346;2022-11-20T06:09:39;4.90;;;3.63;;
5054;SDS011;13829;48.990;8.346;2022-11-20T06:12:06;3.77;;;3.30;;
5054;SDS011;13829;48.990;8.346;2022-11-20T06:14:33;5.30;;;3.50;;
5054;SDS011;13829;48.990;8.346;2022-11-20T06:17:00;4.00;;;3.20;;
5054;SDS011;13829;48.990;8.346;2022-11-20T06:19:28;4.97;;;3.50;;
5054;SDS011;13829;48.990;8.346;2022-11-20T06:21:55;3.53;;;3.23;;
5054;SDS011;13829;48.990;8.346;2022-11-20T06:24:22;4.83;;;3.37;;
5054;SDS011;13829;48.990;8.346;2022-11-20T06:26:50;6.33;;;3.50;;
5054;SDS011;13829;48.990;8.346;2022-11-20T06:29:17;4.63;;;3.30;;
5054;SDS011;13829;48.990;8.346;2022-11-20T06:31:44;3.57;;;3.10;;
5054;SDS011;13829;48.990;8.346;2022-11-20T06:34:11;4.17;;;3.50;;
5054;SDS011;13829;48.990;8.346;2022-11-20T06:36:39;5.60;;;3.30;;
5054;SDS011;13829;48.990;8.346;2022-11-20T06:39:06;6.40;;;3.50;;
5054;SDS011;13829;48.990;8.346;2022-11-20T06:41:33;3.70;;;3.30;;
5054;SDS011;13829;48.990;8.346;2022-11-20T06:44:00;4.67;;;3.60;;
5054;SDS011;13829;48.990;8.346;2022-11-20T06:46:29;5.33;;;3.27;;
5054;SDS011;13829;48.990;8.346;2022-11-20T06:48:57;4.93;;;3.37;;
5054;SDS011;13829;48.990;8.346;2022-11-20T06:51:24;5.10;;;3.47;;
5054;SDS011;13829;48.990;8.346;2022-11-20T06:53:53;5.57;;;3.80;;
5054;SDS011;13829;48.990;8.346;2022-11-20T06:56:20;6.77;;;3.50;;
5054;SDS011;13829;48.990;8.346;2022-11-20T06:58:47;3.90;;;3.47;;
5054;SDS011;13829;48.990;8.346;2022-11-20T07:01:14;6.20;;;3.87;;
5054;SDS011;13829;48.990;8.346;2022-11-20T07:03:41;7.53;;;3.37;;
5054;SDS011;13829;48.990;8.346;2022-11-20T07:06:09;3.57;;;3.17;;
5054;SDS011;13829;48.990;8.346;2022-11-20T07:08:36;5.93;;;3.17;;
5054;SDS011;13829;48.990;8.346;2022-11-20T07:11:06;5.63;;;3.63;;
5054;SDS011;13829;48.990;8.346;2022-11-20T07:13:34;3.90;;;3.50;;
5054;SDS011;13829;48.990;8.346;2022-11-20T07:16:01;3.23;;;2.83;;
5054;SDS011;13829;48.990;8.346;2022-11-20T07:18:32;4.67;;;3.07;;
5054;SDS011;13829;48.990;8.346;2022-11-20T07:21:00;4.60;;;3.30;;
5054;SDS011;13829;48.990;8.346;2022-11-20T07:23:27;4.73;;;3.53;;
5054;SDS011;13829;48.990;8.346;2022-11-20T07:25:54;3.90;;;3.17;;
5054;SDS011;13829;48.990;8.346;2022-11-20T07:28:23;5.33;;;3.43;;
5054;SDS011;13829;48.990;8.346;2022-11-20T07:30:50;4.13;;;3.10;;
5054;SDS011;13829;48.990;8.346;2022-11-20T07:33:18;3.47;;;3.13;;
5054;SDS011;13829;48.990;8.346;2022-11-20T07:35:45;3.60;;;2.87;;
5054;SDS011;13829;48.990;8.346;2022-11-20T07:38:12;3.83;;;3.37;;
5054;SDS011;13829;48.990;8.346;2022-11-20T07:40:39;3.80;;;3.13;;
5054;SDS011;13829;48.990;8.346;2022-11-20T07:43:06;4.67;;;3.00;;
5054;SDS011;13829;48.990;8.346;2022-11-20T07:45:35;3.57;;;3.23;;
5054;SDS011;13829;48.990;8.346;2022-11-20T07:48:02;4.83;;;3.70;;
5054;SDS011;13829;48.990;8.346;2022-11-20T07:50:29;4.50;;;3.30;;
5054;SDS011;13829;48.990;8.346;2022-11-20T07:53:03;4.40;;;3.67;;
5054;SDS011;13829;48.990;8.346;2022-11-20T07:55:31;4.90;;;3.90;;
5054;SDS011;13829;48.990;8.346;2022-11-20T07:57:59;5.50;;;3.50;;
5054;SDS011;13829;48.990;8.346;2022-11-20T08:00:26;3.80;;;3.33;;
5054;SDS011;13829;48.990;8.346;2022-11-20T08:02:54;7.40;;;4.23;;
5054;SDS011;13829;48.990;8.346;2022-11-20T08:05:21;7.33;;;3.93;;
5054;SDS011;13829;48.990;8.346;2022-11-20T08:07:48;7.27;;;4.23;;
5054;SDS011;13829;48.990;8.346;2022-11-20T08:10:16;5.10;;;3.67;;
5054;SDS011;13829;48.990;8.346;2022-11-20T08:12:44;5.63;;;3.77;;
5054;SDS011;13829;48.990;8.346;2022-11-20T08:15:29;4.83;;;3.90;;
5054;SDS011;13829;48.990;8.346;2022-11-20T08:18:02;5.67;;;3.57;;
5054;SDS011;13829;48.990;8.346;2022-11-20T08:20:32;4.40;;;3.90;;
5054;SDS011;13829;48.990;8.346;2022-11-20T08:23:00;5.80;;;3.90;;
5054;SDS011;13829;48.990;8.346;2022-11-20T08:25:31;4.43;;;4.00;;
5054;SDS011;13829;48.990;8.346;2022-11-20T08:27:59;4.23;;;3.53;;
5054;SDS011;13829;48.990;8.346;2022-11-20T08:30:28;7.13;;;4.00;;
5054;SDS011;13829;48.990;8.346;2022-11-20T08:33:00;5.40;;;3.43;;
5054;SDS011;13829;48.990;8.346;2022-11-20T08:35:32;4.07;;;3.50;;
5054;SDS011;13829;48.990;8.346;2022-11-20T08:38:00;3.47;;;3.17;;
5054;SDS011;13829;48.990;8.346;2022-11-20T08:40:28;4.40;;;3.30;;
5054;SDS011;13829;48.990;8.346;2022-11-20T08:42:55;4.07;;;3.33;;
5054;SDS011;13829;48.990;8.346;2022-11-20T08:45:22;4.77;;;3.33;;
5054;SDS011;13829;48.990;8.346;2022-11-20T08:47:49;4.07;;;3.40;;
5054;SDS011;13829;48.990;8.346;2022-11-20T08:50:18;5.07;;;3.90;;
5054;SDS011;13829;48.990;8.346;2022-11-20T08:52:45;4.70;;;3.60;;
5054;SDS011;13829;48.990;8.346;2022-11-20T08:55:12;4.27;;;3.60;;
5054;SDS011;13829;48.990;8.346;2022-11-20T08:57:38;4.00;;;3.43;;
5054;SDS011;13829;48.990;8.346;2022-11-20T09:00:06;4.93;;;3.50;;
5054;SDS011;13829;48.990;8.346;2022-11-20T09:02:36;4.20;;;3.77;;
5054;SDS011;13829;48.990;8.346;2022-11-20T09:05:03;5.17;;;3.43;;
5054;SDS011;13829;48.990;8.346;2022-11-20T09:07:32;3.87;;;3.57;;
5054;SDS011;13829;48.990;8.346;2022-11-20T09:09:59;7.07;;;3.90;;
5054;SDS011;13829;48.990;8.346;2022-11-20T09:12:26;6.07;;;3.70;;
5054;SDS011;13829;48.990;8.346;2022-11-20T09:14:53;5.77;;;3.73;;
5054;SDS011;13829;48.990;8.346;2022-11-20T09:17:20;8.50;;;3.70;;
5054;SDS011;13829;48.990;8.346;2022-11-20T09:19:47;5.93;;;3.93;;
5054;SDS011;13829;48.990;8.346;2022-11-20T09:22:14;3.97;;;3.60;;
5054;SDS011;13829;48.990;8.346;2022-11-20T09:24:42;4.40;;;3.80;;
5054;SDS011;13829;48.990;8.346;2022-11-20T09:27:09;3.77;;;3.30;;
5054;SDS011;13829;48.990;8.346;2022-11-20T09:29:36;3.97;;;3.50;;
5054;SDS011;13829;48.990;8.346;2022-11-20T09:32:04;6.73;;;3.80;;
5054;SDS011;13829;48.990;8.346;2022-11-20T09:34:31;4.20;;;3.50;;
5054;SDS011;13829;48.990;8.346;2022-11-20T09:36:58;5.57;;;3.33;;
5054;SDS011;13829;48.990;8.346;2022-11-20T09:39:25;5.53;;;3.77;;
5054;SDS011;13829;48.990;8.346;2022-11-20T09:41:58;4.90;;;4.00;;
5054;SDS011;13829;48.990;8.346;2022-11-20T09:45:01;4.03;;;3.43;;
5054;SDS011;13829;48.990;8.346;2022-11-20T09:47:53;4.73;;;3.90;;
5054;SDS011;13829;48.990;8.346;2022-11-20T09:50:47;4.40;;;3.83;;
5054;SDS011;13829;48.990;8.346;2022-11-20T09:53:24;6.13;;;3.63;;
5054;SDS011;13829;48.990;8.346;2022-11-20T09:56:01;5.77;;;3.67;;
5054;SDS011;13829;48.990;8.346;2022-11-20T09:58:33;6.97;;;4.13;;
5054;SDS011;13829;48.990;8.346;2022-11-20T10:01:09;6.57;;;4.57;;
5054;SDS011;13829;48.990;8.346;2022-11-20T10:03:46;4.57;;;4.10;;
5054;SDS011;13829;48.990;8.346;2022-11-20T10:06:23;5.43;;;4.63;;
5054;SDS011;13829;48.990;8.346;2022-11-20T10:08:58;5.87;;;3.90;;
5054;SDS011;13829;48.990;8.346;2022-11-20T10:11:43;4.30;;;3.80;;
5054;SDS011;13829;48.990;8.346;2022-11-20T10:14:29;4.23;;;3.60;;
5054;SDS011;13829;48.990;8.346;2022-11-20T10:17:10;5.53;;;3.80;;
5054;SDS011;13829;48.990;8.346;2022-11-20T10:19:51;4.90;;;4.40;;
5054;SDS011;13829;48.990;8.346;2022-11-20T10:22:42;6.20;;;4.50;;
5054;SDS011;13829;48.990;8.346;2022-11-20T10:25:27;5.80;;;4.30;;
5054;SDS011;13829;48.990;8.346;2022-11-20T10:31:02;5.40;;;3.50;;
5054;SDS011;13829;48.990;8.346;2022-11-20T10:33:36;4.17;;;3.73;;
5054;SDS011;13829;48.990;8.346;2022-11-20T10:36:12;4.63;;;3.73;;
5054;SDS011;13829;48.990;8.346;2022-11-20T10:38:47;4.30;;;3.67;;
5054;SDS011;13829;48.990;8.346;2022-11-20T10:41:23;3.57;;;3.23;;
5054;SDS011;13829;48.990;8.346;2022-11-20T10:44:01;5.40;;;3.43;;
5054;SDS011;13829;48.990;8.346;2022-11-20T10:46:37;6.23;;;3.80;;
5054;SDS011;13829;48.990;8.346;2022-11-20T10:49:11;4.83;;;3.70;;
5054;SDS011;13829;48.990;8.346;2022-11-20T10:51:45;5.37;;;3.70;;
5054;SDS011;13829;48.990;8.346;2022-11-20T10:54:31;7.27;;;3.90;;
5054;SDS011;13829;48.990;8.346;2022-11-20T10:57:10;4.60;;;3.70;;
5054;SDS011;13829;48.990;8.346;2022-11-20T10:59:59;4.20;;;3.73;;
5054;SDS011;13829;48.990;8.346;2022-11-20T11:02:34;5.00;;;3.33;;
5054;SDS011;13829;48.990;8.346;2022-11-20T11:05:14;5.27;;;3.77;;
5054;SDS011;13829;48.990;8.346;2022-11-20T11:07:54;6.47;;;3.23;;
5054;SDS011;13829;48.990;8.346;2022-11-20T11:10:24;4.33;;;2.80;;
5054;SDS011;13829;48.990;8.346;2022-11-20T11:13:01;5.13;;;2.73;;
5054;SDS011;13829;48.990;8.346;2022-11-20T11:15:28;5.47;;;3.03;;
5054;SDS011;13829;48.990;8.346;2022-11-20T11:18:05;4.17;;;2.57;;
5054;SDS011;13829;48.990;8.346;2022-11-20T11:20:36;4.60;;;2.70;;
5054;SDS011;13829;48.990;8.346;2022-11-20T11:23:04;7.00;;;2.83;;
5054;SDS011;13829;48.990;8.346;2022-11-20T11:25:32;4.60;;;2.60;;
5054;SDS011;13829;48.990;8.346;2022-11-20T11:28:03;4.80;;;2.57;;
5054;SDS011;13829;48.990;8.346;2022-11-20T11:30:45;3.67;;;2.77;;
5054;SDS011;13829;48.990;8.346;2022-11-20T11:33:19;7.60;;;2.40;;
5054;SDS011;13829;48.990;8.346;2022-11-20T11:35:49;6.33;;;2.77;;
5054;SDS011;13829;48.990;8.346;2022-11-20T11:38:23;4.97;;;2.80;;
5054;SDS011;13829;48.990;8.346;2022-11-20T11:41:00;7.27;;;2.93;;
5054;SDS011;13829;48.990;8.346;2022-11-20T11:43:28;5.13;;;2.53;;
5054;SDS011;13829;48.990;8.346;2022-11-20T11:46:25;6.87;;;2.67;;
5054;SDS011;13829;48.990;8.346;2022-11-20T11:48:59;5.00;;;2.57;;
5054;SDS011;13829;48.990;8.346;2022-11-20T11:51:47;4.63;;;2.70;;
5054;SDS011;13829;48.990;8.346;2022-11-20T11:54:29;5.73;;;2.60;;
5054;SDS011;13829;48.990;8.346;2022-11-20T11:57:04;4.60;;;2.70;;
5054;SDS011;13829;48.990;8.346;2022-11-20T11:59:44;7.40;;;2.53;;
5054;SDS011;13829;48.990;8.346;2022-11-20T12:02:29;4.93;;;2.10;;
5054;SDS011;13829;48.990;8.346;2022-11-20T12:05:10;2.30;;;1.83;;
5054;SDS011;13829;48.990;8.346;2022-11-20T12:07:46;4.03;;;2.13;;
5054;SDS011;13829;48.990;8.346;2022-11-20T12:10:20;2.43;;;1.83;;
5054;SDS011;13829;48.990;8.346;2022-11-20T12:13:08;2.70;;;1.90;;
5054;SDS011;13829;48.990;8.346;2022-11-20T12:15:47;2.80;;;1.70;;
5054;SDS011;13829;48.990;8.346;2022-11-20T12:18:16;2.80;;;1.80;;
5054;SDS011;13829;48.990;8.346;2022-11-20T12:20:52;4.00;;;1.70;;
5054;SDS011;13829;48.990;8.346;2022-11-20T12:23:34;4.93;;;2.10;;
5054;SDS011;13829;48.990;8.346;2022-11-20T12:26:12;4.50;;;1.93;;
5054;SDS011;13829;48.990;8.346;2022-11-20T12:29:12;4.07;;;1.80;;
5054;SDS011;13829;48.990;8.346;2022-11-20T12:31:56;3.17;;;1.60;;
5054;SDS011;13829;48.990;8.346;2022-11-20T12:35:28;5.80;;;1.97;;
5054;SDS011;13829;48.990;8.346;2022-11-20T12:38:31;5.50;;;2.23;;
5054;SDS011;13829;48.990;8.346;2022-11-20T12:41:40;2.97;;;1.60;;
5054;SDS011;13829;48.990;8.346;2022-11-20T12:44:57;3.73;;;1.40;;
5054;SDS011;13829;48.990;8.346;2022-11-20T12:47:43;3.03;;;1.93;;
5054;SDS011;13829;48.990;8.346;2022-11-20T12:50:57;3.37;;;1.37;;
5054;SDS011;13829;48.990;8.346;2022-11-20T12:54:08;4.33;;;1.43;;
5054;SDS011;13829;48.990;8.346;2022-11-20T12:57:15;3.77;;;1.33;;
5054;SDS011;13829;48.990;8.346;2022-11-20T13:06:05;3.90;;;1.50;;
5054;SDS011;13829;48.990;8.346;2022-11-20T13:08:41;3.33;;;1.20;;
5054;SDS011;13829;48.990;8.346;2022-11-20T13:11:16;1.73;;;1.17;;
5054;SDS011;13829;48.990;8.346;2022-11-20T13:14:04;2.17;;;1.00;;
5054;SDS011;13829;48.990;8.346;2022-11-20T13:16:45;1.77;;;0.97;;
5054;SDS011;13829;48.990;8.346;2022-11-20T13:19:21;2.37;;;1.17;;
5054;SDS011;13829;48.990;8.346;2022-11-20T13:21:49;2.47;;;1.53;;
5054;SDS011;13829;48.990;8.346;2022-11-20T13:24:20;1.90;;;1.20;;
5054;SDS011;13829;48.990;8.346;2022-11-20T13:27:02;3.20;;;1.13;;
5054;SDS011;13829;48.990;8.346;2022-11-20T13:29:45;2.63;;;1.00;;
5054;SDS011;13829;48.990;8.346;2022-11-20T13:32:26;3.07;;;1.10;;
5054;SDS011;13829;48.990;8.346;2022-11-20T13:34:57;5.10;;;1.40;;
5054;SDS011;13829;48.990;8.346;2022-11-20T13:37:28;2.30;;;1.10;;
5054;SDS011;13829;48.990;8.346;2022-11-20T13:40:05;2.33;;;1.17;;
5054;SDS011;13829;48.990;8.346;2022-11-20T13:42:43;2.90;;;1.20;;
5054;SDS011;13829;48.990;8.346;2022-11-20T13:45:21;2.67;;;1.30;;
5054;SDS011;13829;48.990;8.346;2022-11-20T13:47:51;3.37;;;1.40;;
5054;SDS011;13829;48.990;8.346;2022-11-20T13:50:21;2.83;;;1.50;;
5054;SDS011;13829;48.990;8.346;2022-11-20T13:53:11;3.43;;;1.13;;
5054;SDS011;13829;48.990;8.346;2022-11-20T13:56:01;3.40;;;1.30;;
5054;SDS011;13829;48.990;8.346;2022-11-20T13:58:42;2.70;;;1.53;;
5054;SDS011;13829;48.990;8.346;2022-11-20T14:01:24;4.47;;;1.20;;
5054;SDS011;13829;48.990;8.346;2022-11-20T14:03:54;3.30;;;1.67;;
5054;SDS011;13829;48.990;8.346;2022-11-20T14:06:24;6.10;;;1.80;;
5054;SDS011;13829;48.990;8.346;2022-11-20T14:08:55;2.63;;;1.27;;
5054;SDS011;13829;48.990;8.346;2022-11-20T14:11:25;2.67;;;1.20;;
5054;SDS011;13829;48.990;8.346;2022-11-20T14:13:57;1.77;;;1.17;;
5054;SDS011;13829;48.990;8.346;2022-11-20T14:16:28;2.13;;;1.30;;
5054;SDS011;13829;48.990;8.346;2022-11-20T14:19:13;3.10;;;1.20;;
5054;SDS011;13829;48.990;8.346;2022-11-20T14:22:10;2.93;;;1.40;;
5054;SDS011;13829;48.990;8.346;2022-11-20T14:24:44;3.50;;;1.17;;
5054;SDS011;13829;48.990;8.346;2022-11-20T14:27:12;2.60;;;1.20;;
5054;SDS011;13829;48.990;8.346;2022-11-20T14:29:43;2.50;;;1.40;;
5054;SDS011;13829;48.990;8.346;2022-11-20T14:32:14;1.90;;;1.27;;
5054;SDS011;13829;48.990;8.346;2022-11-20T14:34:44;3.37;;;1.00;;
5054;SDS011;13829;48.990;8.346;2022-11-20T14:37:17;4.77;;;1.10;;
5054;SDS011;13829;48.990;8.346;2022-11-20T14:39:51;3.90;;;1.40;;
5054;SDS011;13829;48.990;8.346;2022-11-20T14:42:21;2.50;;;1.33;;
5054;SDS011;13829;48.990;8.346;2022-11-20T14:44:54;3.13;;;1.30;;
5054;SDS011;13829;48.990;8.346;2022-11-20T14:47:24;3.17;;;1.40;;
5054;SDS011;13829;48.990;8.346;2022-11-20T14:49:55;2.47;;;1.40;;
5054;SDS011;13829;48.990;8.346;2022-11-20T14:52:25;4.43;;;1.43;;
5054;SDS011;13829;48.990;8.346;2022-11-20T14:54:54;1.70;;;1.10;;
5054;SDS011;13829;48.990;8.346;2022-11-20T14:57:25;3.03;;;1.30;;
5054;SDS011;13829;48.990;8.346;2022-11-20T15:00:07;1.67;;;1.30;;
5054;SDS011;13829;48.990;8.346;2022-11-20T15:02:47;3.53;;;1.50;;
5054;SDS011;13829;48.990;8.346;2022-11-20T15:05:16;3.47;;;1.60;;
5054;SDS011;13829;48.990;8.346;2022-11-20T15:07:46;2.83;;;1.30;;
5054;SDS011;13829;48.990;8.346;2022-11-20T15:10:20;2.60;;;1.20;;
5054;SDS011;13829;48.990;8.346;2022-11-20T15:12:50;3.43;;;1.37;;
5054;SDS011;13829;48.990;8.346;2022-11-20T15:15:20;2.90;;;1.40;;
5054;SDS011;13829;48.990;8.346;2022-11-20T15:17:55;2.73;;;1.33;;
5054;SDS011;13829;48.990;8.346;2022-11-20T15:20:23;2.60;;;1.37;;
5054;SDS011;13829;48.990;8.346;2022-11-20T15:22:54;3.77;;;1.50;;
5054;SDS011;13829;48.990;8.346;2022-11-20T15:25:21;2.40;;;1.70;;
5054;SDS011;13829;48.990;8.346;2022-11-20T15:27:50;2.07;;;1.40;;
5054;SDS011;13829;48.990;8.346;2022-11-20T15:30:23;3.20;;;1.70;;
5054;SDS011;13829;48.990;8.346;2022-11-20T15:32:50;2.73;;;1.50;;
5054;SDS011;13829;48.990;8.346;2022-11-20T15:35:17;4.10;;;2.17;;
5054;SDS011;13829;48.990;8.346;2022-11-20T15:37:44;4.60;;;2.13;;
5054;SDS011;13829;48.990;8.346;2022-11-20T15:40:11;3.23;;;1.50;;